createdAt,value
2018-01-27T00:00:35.858Z,0
2018-01-27T00:01:46.035Z,0
2018-01-27T00:02:56.179Z,0
2018-01-27T00:04:06.386Z,0
2018-01-27T00:05:16.638Z,0
2018-01-27T00:06:26.822Z,0
2018-01-27T00:07:37.052Z,0
2018-01-27T00:08:47.226Z,0
2018-01-27T00:09:57.586Z,0
2018-01-27T00:11:07.434Z,0
2018-01-27T00:12:18.545Z,0
2018-01-27T00:13:28.792Z,0
2018-01-27T00:14:38.953Z,0
2018-01-27T00:15:49.123Z,0
2018-01-27T00:16:59.291Z,0
2018-01-27T00:18:09.503Z,0
2018-01-27T00:19:19.670Z,0
2018-01-27T00:20:29.823Z,0
2018-01-27T00:21:39.968Z,0
2018-01-27T00:22:50.090Z,0
2018-01-27T00:23:59.972Z,0
2018-01-27T00:25:10.095Z,0
2018-01-27T00:26:20.242Z,0
2018-01-27T00:27:30.441Z,0
2018-01-27T00:28:40.334Z,0
2018-01-27T00:29:50.458Z,0
2018-01-27T00:31:00.589Z,0
2018-01-27T00:32:10.792Z,0
2018-01-27T00:33:20.967Z,0
2018-01-27T00:34:31.153Z,0
2018-01-27T00:35:41.415Z,0
2018-01-27T00:36:51.721Z,0
2018-01-27T00:38:01.891Z,0
2018-01-27T00:39:12.101Z,0
2018-01-27T00:40:22.326Z,0
2018-01-27T00:41:32.499Z,0
2018-01-27T00:42:42.641Z,0
2018-01-27T00:43:52.830Z,0
2018-01-27T00:45:02.955Z,0
2018-01-27T00:46:12.596Z,0
2018-01-27T00:47:22.736Z,0
2018-01-27T00:48:32.856Z,0
2018-01-27T00:49:43.055Z,0
2018-01-27T00:50:53.342Z,0
2018-01-27T00:52:03.641Z,0
2018-01-27T00:53:13.424Z,0
2018-01-27T00:54:23.288Z,0
2018-01-27T00:55:33.476Z,0
2018-01-27T00:56:43.644Z,0
2018-01-27T00:57:53.799Z,0
2018-01-27T00:59:03.955Z,0
2018-01-27T01:00:14.175Z,0
2018-01-27T01:01:24.565Z,0
2018-01-27T01:02:34.482Z,0
2018-01-27T01:03:44.625Z,0
2018-01-27T01:04:54.767Z,0
2018-01-27T01:06:04.956Z,0
2018-01-27T01:07:15.079Z,0
2018-01-27T01:08:25.252Z,0
2018-01-27T01:09:35.424Z,0
2018-01-27T01:10:45.612Z,0
2018-01-27T01:11:55.780Z,0
2018-01-27T01:13:05.952Z,0
2018-01-27T01:14:16.356Z,0
2018-01-27T01:15:26.548Z,0
2018-01-27T01:16:36.821Z,0
2018-01-27T01:17:46.964Z,0
2018-01-27T01:18:57.102Z,0
2018-01-27T01:20:07.276Z,0
2018-01-27T01:21:17.497Z,0
2018-01-27T01:22:27.706Z,0
2018-01-27T01:23:37.815Z,0
2018-01-27T01:24:47.989Z,0
2018-01-27T01:25:58.139Z,0
2018-01-27T01:27:09.239Z,0
2018-01-27T01:28:19.485Z,0
2018-01-27T01:29:29.746Z,0
2018-01-27T01:30:39.973Z,0
2018-01-27T01:31:50.191Z,0
2018-01-27T01:33:00.345Z,0
2018-01-27T01:34:10.574Z,0
2018-01-27T01:35:20.720Z,0
2018-01-27T01:36:30.943Z,0
2018-01-27T01:37:41.141Z,0
2018-01-27T01:38:51.344Z,0
2018-01-27T01:40:01.342Z,0
2018-01-27T01:41:11.486Z,0
2018-01-27T01:42:21.642Z,0
2018-01-27T01:43:31.812Z,0
2018-01-27T01:44:42.195Z,0
2018-01-27T01:45:52.357Z,0
2018-01-27T01:47:02.505Z,0
2018-01-27T01:48:12.756Z,0
2018-01-27T01:49:23.000Z,0
2018-01-27T01:50:33.137Z,0
2018-01-27T01:51:43.325Z,0
2018-01-27T01:52:53.447Z,0
2018-01-27T01:54:03.334Z,0
2018-01-27T01:55:13.507Z,0
2018-01-27T01:56:23.684Z,0
2018-01-27T01:57:33.807Z,0
2018-01-27T01:58:43.978Z,0
2018-01-27T01:59:54.097Z,0
2018-01-27T02:01:04.221Z,0
2018-01-27T02:02:14.401Z,0
2018-01-27T02:03:24.627Z,0
2018-01-27T02:04:34.770Z,0
2018-01-27T02:05:44.915Z,0
2018-01-27T02:06:55.085Z,0
2018-01-27T02:08:05.200Z,0
2018-01-27T02:09:15.355Z,0
2018-01-27T02:10:25.527Z,0
2018-01-27T02:11:35.398Z,0
2018-01-27T02:12:45.553Z,0
2018-01-27T02:13:55.683Z,0
2018-01-27T02:15:05.813Z,0
2018-01-27T02:16:15.973Z,0
2018-01-27T02:17:26.095Z,0
2018-01-27T02:18:36.274Z,0
2018-01-27T02:19:47.358Z,0
2018-01-27T02:20:57.604Z,0
2018-01-27T02:22:07.774Z,0
2018-01-27T02:23:18.047Z,0
2018-01-27T02:24:28.317Z,0
2018-01-27T02:25:38.501Z,0
2018-01-27T02:26:48.399Z,0
2018-01-27T02:27:58.524Z,0
2018-01-27T02:29:08.668Z,0
2018-01-27T02:30:18.819Z,0
2018-01-27T02:31:28.964Z,0
2018-01-27T02:32:39.144Z,0
2018-01-27T02:33:49.273Z,0
2018-01-27T02:34:59.548Z,0
2018-01-27T02:36:09.757Z,0
2018-01-27T02:37:19.917Z,0
2018-01-27T02:38:30.034Z,0
2018-01-27T02:39:39.944Z,0
2018-01-27T02:40:50.402Z,0
2018-01-27T02:42:00.568Z,0
2018-01-27T02:43:10.469Z,0
2018-01-27T02:44:20.585Z,0
2018-01-27T02:45:30.694Z,0
2018-01-27T02:46:40.820Z,0
2018-01-27T02:47:51.055Z,0
2018-01-27T02:49:01.288Z,0
2018-01-27T02:50:11.246Z,0
2018-01-27T02:51:21.381Z,0
2018-01-27T02:52:31.534Z,0
2018-01-27T02:53:41.780Z,0
2018-01-27T02:54:52.081Z,0
2018-01-27T02:56:02.218Z,0
2018-01-27T02:57:12.482Z,0
2018-01-27T02:58:22.698Z,0
2018-01-27T02:59:32.854Z,0
2018-01-27T03:00:43.028Z,0
2018-01-27T03:01:53.176Z,0
2018-01-27T03:03:03.421Z,0
2018-01-27T03:04:13.757Z,0
2018-01-27T03:05:23.987Z,0
2018-01-27T03:06:34.172Z,0
2018-01-27T03:07:44.402Z,0
2018-01-27T03:08:54.633Z,0
2018-01-27T03:10:04.781Z,0
2018-01-27T03:11:15.053Z,0
2018-01-27T03:12:25.189Z,0
2018-01-27T03:13:35.533Z,0
2018-01-27T03:14:45.691Z,0
2018-01-27T03:15:56.065Z,0
2018-01-27T03:17:06.334Z,0
2018-01-27T03:18:16.518Z,0
2018-01-27T03:19:26.651Z,0
2018-01-27T03:20:36.816Z,0
2018-01-27T03:21:47.009Z,0
2018-01-27T03:22:57.259Z,0
2018-01-27T03:24:07.146Z,0
2018-01-27T03:25:17.275Z,0
2018-01-27T03:26:27.400Z,0
2018-01-27T03:27:37.576Z,0
2018-01-27T03:28:47.490Z,0
2018-01-27T03:29:57.708Z,0
2018-01-27T03:31:07.996Z,0
2018-01-27T03:32:18.196Z,0
2018-01-27T03:33:28.446Z,0
2018-01-27T03:34:38.565Z,0
2018-01-27T03:35:49.688Z,0
2018-01-27T03:36:59.826Z,0
2018-01-27T03:38:09.964Z,0
2018-01-27T03:39:19.886Z,0
2018-01-27T03:40:29.982Z,0
2018-01-27T03:41:40.086Z,0
2018-01-27T03:42:50.311Z,0
2018-01-27T03:44:00.437Z,0
2018-01-27T03:45:10.597Z,0
2018-01-27T03:46:20.762Z,0
2018-01-27T03:47:30.954Z,0
2018-01-27T03:48:41.192Z,0
2018-01-27T03:49:51.370Z,0
2018-01-27T03:51:01.629Z,0
2018-01-27T03:52:11.952Z,0
2018-01-27T03:53:22.198Z,0
2018-01-27T03:54:32.422Z,0
2018-01-27T03:55:43.539Z,0
2018-01-27T03:56:53.754Z,0
2018-01-27T03:58:04.031Z,0
2018-01-27T03:59:14.277Z,0
2018-01-27T04:00:24.497Z,0
2018-01-27T04:01:34.645Z,0
2018-01-27T04:02:44.836Z,0
2018-01-27T04:03:55.041Z,0
2018-01-27T04:05:05.227Z,0
2018-01-27T04:06:15.371Z,0
2018-01-27T04:07:25.477Z,0
2018-01-27T04:08:35.574Z,0
2018-01-27T04:09:45.694Z,0
2018-01-27T04:10:55.849Z,0
2018-01-27T04:12:06.000Z,0
2018-01-27T04:13:16.119Z,0
2018-01-27T04:14:26.238Z,0
2018-01-27T04:15:36.369Z,0
2018-01-27T04:16:46.224Z,0
2018-01-27T04:17:56.373Z,0
2018-01-27T04:19:06.524Z,0
2018-01-27T04:20:16.734Z,0
2018-01-27T04:21:26.951Z,0
2018-01-27T04:22:37.110Z,0
2018-01-27T04:23:47.233Z,0
2018-01-27T04:24:57.423Z,0
2018-01-27T04:26:07.268Z,0
2018-01-27T04:27:17.396Z,0
2018-01-27T04:28:27.491Z,0
2018-01-27T04:29:37.613Z,0
2018-01-27T04:30:47.790Z,0
2018-01-27T04:31:57.910Z,0
2018-01-27T04:33:08.099Z,0
2018-01-27T04:34:18.258Z,0
2018-01-27T04:35:28.430Z,0
2018-01-27T04:36:38.538Z,0
2018-01-27T04:37:48.643Z,0
2018-01-27T04:38:58.502Z,0
2018-01-27T04:40:08.652Z,0
2018-01-27T04:41:18.771Z,0
2018-01-27T04:42:28.966Z,0
2018-01-27T04:43:38.826Z,0
2018-01-27T04:44:48.985Z,0
2018-01-27T04:45:59.215Z,0
2018-01-27T04:47:09.337Z,0
2018-01-27T04:48:19.546Z,0
2018-01-27T04:49:29.817Z,0
2018-01-27T04:50:40.072Z,0
2018-01-27T04:51:50.562Z,0
2018-01-27T04:53:00.692Z,0
2018-01-27T04:54:10.818Z,0
2018-01-27T04:55:20.935Z,0
2018-01-27T04:56:31.216Z,0
2018-01-27T04:57:41.327Z,0
2018-01-27T04:58:51.458Z,0
2018-01-27T05:00:01.557Z,0
2018-01-27T05:01:11.681Z,0
2018-01-27T05:02:21.814Z,0
2018-01-27T05:03:31.936Z,0
2018-01-27T05:04:42.064Z,0
2018-01-27T05:05:52.182Z,0
2018-01-27T05:07:02.312Z,0
2018-01-27T05:08:12.471Z,0
2018-01-27T05:09:22.655Z,0
2018-01-27T05:10:32.525Z,0
2018-01-27T05:11:42.207Z,0
2018-01-27T05:12:52.394Z,0
2018-01-27T05:14:02.561Z,0
2018-01-27T05:15:12.163Z,0
2018-01-27T05:16:22.279Z,0
2018-01-27T05:17:32.402Z,0
2018-01-27T05:18:42.513Z,0
2018-01-27T05:19:52.696Z,0
2018-01-27T05:21:02.934Z,0
2018-01-27T05:22:13.078Z,0
2018-01-27T05:23:22.995Z,0
2018-01-27T05:24:33.106Z,0
2018-01-27T05:25:43.257Z,0
2018-01-27T05:26:53.451Z,0
2018-01-27T05:28:03.680Z,0
2018-01-27T05:29:13.868Z,0
2018-01-27T05:30:23.977Z,0
2018-01-27T05:31:34.085Z,0
2018-01-27T05:32:44.266Z,0
2018-01-27T05:33:54.500Z,0
2018-01-27T05:35:04.689Z,0
2018-01-27T05:36:14.895Z,0
2018-01-27T05:37:25.006Z,0
2018-01-27T05:38:35.255Z,0
2018-01-27T05:39:45.495Z,0
2018-01-27T05:40:55.636Z,0
2018-01-27T05:42:05.764Z,0
2018-01-27T05:43:15.903Z,0
2018-01-27T05:44:26.050Z,0
2018-01-27T05:45:36.154Z,0
2018-01-27T05:46:46.267Z,0
2018-01-27T05:47:56.451Z,0
2018-01-27T05:49:06.799Z,0
2018-01-27T05:50:17.005Z,0
2018-01-27T05:51:27.149Z,0
2018-01-27T05:52:37.335Z,0
2018-01-27T05:53:47.497Z,0
2018-01-27T05:54:57.643Z,0
2018-01-27T05:56:07.751Z,0
2018-01-27T05:57:17.853Z,0
2018-01-27T05:58:28.068Z,0
2018-01-27T05:59:38.333Z,0
2018-01-27T06:00:48.552Z,0
2018-01-27T06:01:58.771Z,0
2018-01-27T06:03:08.651Z,0
2018-01-27T06:04:18.792Z,0
2018-01-27T06:05:28.996Z,0
2018-01-27T06:06:39.186Z,0
2018-01-27T06:07:49.340Z,0
2018-01-27T06:08:59.447Z,0
2018-01-27T06:10:09.761Z,0
2018-01-27T06:11:19.995Z,0
2018-01-27T06:12:30.161Z,0
2018-01-27T06:13:40.262Z,0
2018-01-27T06:14:50.373Z,0
2018-01-27T06:16:00.539Z,0
2018-01-27T06:17:11.635Z,0
2018-01-27T06:18:21.778Z,0
2018-01-27T06:19:31.944Z,0
2018-01-27T06:20:42.097Z,0
2018-01-27T06:21:52.227Z,0
2018-01-27T06:23:02.375Z,0
2018-01-27T06:24:12.237Z,0
2018-01-27T06:25:22.372Z,0
2018-01-27T06:26:32.575Z,0
2018-01-27T06:27:42.326Z,0
2018-01-27T06:28:52.509Z,0
2018-01-27T06:30:02.666Z,0
2018-01-27T06:31:12.816Z,0
2018-01-27T06:32:22.960Z,0
2018-01-27T06:33:33.053Z,0
2018-01-27T06:34:43.204Z,0
2018-01-27T06:35:53.349Z,0
2018-01-27T06:37:03.543Z,0
2018-01-27T06:38:13.698Z,0
2018-01-27T06:39:23.860Z,0
2018-01-27T06:40:33.834Z,0
2018-01-27T06:41:43.978Z,0
2018-01-27T06:42:54.101Z,0
2018-01-27T06:44:04.359Z,0
2018-01-27T06:45:14.474Z,0
2018-01-27T06:46:24.613Z,0
2018-01-27T06:47:34.726Z,0
2018-01-27T06:48:44.602Z,0
2018-01-27T06:49:54.708Z,0
2018-01-27T06:51:04.839Z,0
2018-01-27T06:52:15.016Z,0
2018-01-27T06:53:25.145Z,0
2018-01-27T06:54:35.294Z,0
2018-01-27T06:55:45.188Z,0
2018-01-27T06:56:55.350Z,0
2018-01-27T06:58:05.484Z,0
2018-01-27T06:59:15.408Z,0
2018-01-27T07:00:25.557Z,0
2018-01-27T07:01:35.676Z,0
2018-01-27T07:02:45.798Z,0
2018-01-27T07:03:55.979Z,0
2018-01-27T07:05:06.163Z,0
2018-01-27T07:06:16.266Z,0
2018-01-27T07:07:26.471Z,5
2018-01-27T07:08:36.640Z,5
2018-01-27T07:09:46.845Z,5
2018-01-27T07:10:56.978Z,5
2018-01-27T07:12:07.156Z,5
2018-01-27T07:13:17.281Z,5
2018-01-27T07:14:27.452Z,5
2018-01-27T07:15:37.590Z,5
2018-01-27T07:16:47.704Z,5
2018-01-27T07:17:57.833Z,5
2018-01-27T07:19:08.008Z,10
2018-01-27T07:20:18.205Z,10
2018-01-27T07:21:28.007Z,10
2018-01-27T07:22:38.257Z,10
2018-01-27T07:23:48.555Z,10
2018-01-27T07:24:58.710Z,10
2018-01-27T07:26:08.891Z,10
2018-01-27T07:27:19.099Z,10
2018-01-27T07:28:29.296Z,15
2018-01-27T07:29:39.592Z,15
2018-01-27T07:30:49.769Z,15
2018-01-27T07:31:59.910Z,15
2018-01-27T07:33:10.087Z,15
2018-01-27T07:34:20.256Z,15
2018-01-27T07:35:30.153Z,15
2018-01-27T07:36:40.344Z,15
2018-01-27T07:37:50.483Z,20
2018-01-27T07:39:00.615Z,20
2018-01-27T07:40:10.514Z,20
2018-01-27T07:41:20.876Z,20
2018-01-27T07:42:31.185Z,20
2018-01-27T07:43:41.384Z,20
2018-01-27T07:44:51.499Z,20
2018-01-27T07:46:01.833Z,20
2018-01-27T07:47:12.000Z,20
2018-01-27T07:48:22.128Z,20
2018-01-27T07:49:32.258Z,25
2018-01-27T07:50:42.161Z,25
2018-01-27T07:51:52.296Z,25
2018-01-27T07:53:02.459Z,25
2018-01-27T07:54:12.596Z,25
2018-01-27T07:55:22.742Z,30
2018-01-27T07:56:32.903Z,30
2018-01-27T07:57:43.057Z,35
2018-01-27T07:58:53.188Z,40
2018-01-27T08:00:03.328Z,40
2018-01-27T08:01:13.508Z,45
2018-01-27T08:02:23.742Z,50
2018-01-27T08:03:33.679Z,50
2018-01-27T08:04:43.863Z,50
2018-01-27T08:05:54.000Z,50
2018-01-27T08:07:04.189Z,55
2018-01-27T08:08:14.367Z,50
2018-01-27T08:09:24.522Z,50
2018-01-27T08:10:34.647Z,45
2018-01-27T08:11:44.800Z,45
2018-01-27T08:12:55.028Z,45
2018-01-27T08:14:05.174Z,45
2018-01-27T08:15:15.347Z,50
2018-01-27T08:16:25.497Z,50
2018-01-27T08:17:35.693Z,50
2018-01-27T08:18:45.924Z,50
2018-01-27T08:19:56.171Z,45
2018-01-27T08:21:06.221Z,45
2018-01-27T08:22:16.376Z,50
2018-01-27T08:23:26.542Z,50
2018-01-27T08:24:36.658Z,50
2018-01-27T08:25:46.813Z,50
2018-01-27T08:26:57.047Z,55
2018-01-27T08:28:07.212Z,55
2018-01-27T08:29:17.505Z,60
2018-01-27T08:30:27.719Z,60
2018-01-27T08:31:37.883Z,65
2018-01-27T08:32:48.151Z,70
2018-01-27T08:33:58.051Z,70
2018-01-27T08:35:08.337Z,75
2018-01-27T08:36:18.499Z,75
2018-01-27T08:37:28.638Z,75
2018-01-27T08:38:38.822Z,75
2018-01-27T08:39:49.038Z,75
2018-01-27T08:40:59.266Z,75
2018-01-27T08:42:09.550Z,70
2018-01-27T08:43:19.716Z,70
2018-01-27T08:44:29.956Z,70
2018-01-27T08:45:40.172Z,70
2018-01-27T08:46:50.355Z,75
2018-01-27T08:48:00.518Z,75
2018-01-27T08:49:10.779Z,80
2018-01-27T08:50:21.080Z,80
2018-01-27T08:51:31.234Z,85
2018-01-27T08:52:41.523Z,80
2018-01-27T08:53:51.579Z,90
2018-01-27T08:55:01.806Z,95
2018-01-27T08:56:11.967Z,95
2018-01-27T08:57:22.022Z,95
2018-01-27T08:58:32.147Z,95
2018-01-27T08:59:42.292Z,90
2018-01-27T09:00:52.458Z,90
2018-01-27T09:02:02.585Z,85
2018-01-27T09:03:12.726Z,85
2018-01-27T09:04:22.850Z,90
2018-01-27T09:05:33.167Z,90
2018-01-27T09:06:43.338Z,100
2018-01-27T09:07:53.515Z,100
2018-01-27T09:09:03.425Z,100
2018-01-27T09:10:13.793Z,100
2018-01-27T09:11:24.015Z,105
2018-01-27T09:12:33.886Z,105
2018-01-27T09:13:44.060Z,110
2018-01-27T09:14:54.180Z,105
2018-01-27T09:16:04.355Z,110
2018-01-27T09:17:14.339Z,110
2018-01-27T09:18:24.520Z,115
2018-01-27T09:19:34.683Z,115
2018-01-27T09:20:44.868Z,115
2018-01-27T09:21:55.111Z,115
2018-01-27T09:23:05.272Z,115
2018-01-27T09:24:15.511Z,120
2018-01-27T09:25:25.720Z,120
2018-01-27T09:26:35.620Z,130
2018-01-27T09:27:45.861Z,140
2018-01-27T09:28:56.057Z,140
2018-01-27T09:30:06.266Z,145
2018-01-27T09:31:16.403Z,150
2018-01-27T09:32:26.301Z,150
2018-01-27T09:33:36.493Z,140
2018-01-27T09:34:46.636Z,135
2018-01-27T09:35:56.539Z,150
2018-01-27T09:37:06.667Z,175
2018-01-27T09:38:16.838Z,220
2018-01-27T09:39:27.001Z,270
2018-01-27T09:40:37.163Z,305
2018-01-27T09:41:47.316Z,320
2018-01-27T09:42:57.561Z,335
2018-01-27T09:44:07.724Z,350
2018-01-27T09:45:17.996Z,400
2018-01-27T09:46:28.181Z,375
2018-01-27T09:47:38.398Z,360
2018-01-27T09:48:48.666Z,385
2018-01-27T09:49:58.844Z,700
2018-01-27T09:51:08.767Z,865
2018-01-27T09:52:18.943Z,820
2018-01-27T09:53:28.831Z,835
2018-01-27T09:54:38.965Z,660
2018-01-27T09:55:49.127Z,530
2018-01-27T09:56:59.012Z,450
2018-01-27T09:58:08.981Z,485
2018-01-27T09:59:18.913Z,475
2018-01-27T10:00:29.132Z,920
2018-01-27T10:01:39.274Z,1030
2018-01-27T10:02:49.454Z,960
2018-01-27T10:03:59.647Z,935
2018-01-27T10:05:09.846Z,930
2018-01-27T10:06:20.100Z,550
2018-01-27T10:07:30.336Z,500
2018-01-27T10:08:41.512Z,835
2018-01-27T10:09:51.680Z,950
2018-01-27T10:11:01.904Z,990
2018-01-27T10:12:12.129Z,1000
2018-01-27T10:13:22.291Z,1080
2018-01-27T10:14:32.512Z,1145
2018-01-27T10:15:42.687Z,1045
2018-01-27T10:16:52.850Z,1005
2018-01-27T10:18:03.046Z,1000
2018-01-27T10:19:13.220Z,1000
2018-01-27T10:20:23.459Z,1045
2018-01-27T10:21:33.621Z,1060
2018-01-27T10:22:43.805Z,1040
2018-01-27T10:23:53.965Z,1185
2018-01-27T10:25:04.149Z,1220
2018-01-27T10:26:14.348Z,1180
2018-01-27T10:27:24.559Z,1185
2018-01-27T10:28:34.752Z,1130
2018-01-27T10:29:45.017Z,1200
2018-01-27T10:30:55.228Z,1195
2018-01-27T10:32:05.476Z,1195
2018-01-27T10:33:15.730Z,1235
2018-01-27T10:34:26.264Z,1200
2018-01-27T10:35:36.416Z,1220
2018-01-27T10:36:46.324Z,1270
2018-01-27T10:37:56.543Z,1355
2018-01-27T10:39:06.695Z,1375
2018-01-27T10:40:16.701Z,1285
2018-01-27T10:41:26.895Z,1210
2018-01-27T10:42:37.192Z,1205
2018-01-27T10:43:47.349Z,1205
2018-01-27T10:44:57.550Z,1185
2018-01-27T10:46:07.703Z,1205
2018-01-27T10:47:17.920Z,1230
2018-01-27T10:48:28.091Z,1265
2018-01-27T10:49:38.257Z,1315
2018-01-27T10:50:48.544Z,1350
2018-01-27T10:51:58.740Z,1255
2018-01-27T10:53:08.902Z,1325
2018-01-27T10:54:19.067Z,1365
2018-01-27T10:55:29.324Z,1380
2018-01-27T10:56:39.499Z,1360
2018-01-27T10:57:49.659Z,1300
2018-01-27T10:58:59.826Z,1310
2018-01-27T11:00:10.198Z,1355
2018-01-27T11:01:20.418Z,1350
2018-01-27T11:02:30.216Z,1390
2018-01-27T11:03:40.388Z,1375
2018-01-27T11:04:50.583Z,1365
2018-01-27T11:06:00.778Z,1345
2018-01-27T11:07:10.678Z,1315
2018-01-27T11:08:20.835Z,1270
2018-01-27T11:09:31.009Z,1335
2018-01-27T11:10:41.216Z,1275
2018-01-27T11:11:51.394Z,1305
2018-01-27T11:13:01.563Z,1325
2018-01-27T11:14:11.500Z,1330
2018-01-27T11:15:21.656Z,1375
2018-01-27T11:16:31.901Z,1465
2018-01-27T11:17:42.087Z,1315
2018-01-27T11:18:52.283Z,1385
2018-01-27T11:20:02.471Z,1295
2018-01-27T11:21:12.722Z,1185
2018-01-27T11:22:23.013Z,1265
2018-01-27T11:23:33.282Z,1255
2018-01-27T11:24:43.520Z,1240
2018-01-27T11:25:53.725Z,1235
2018-01-27T11:27:03.871Z,1235
2018-01-27T11:28:14.091Z,1270
2018-01-27T11:29:24.421Z,1100
2018-01-27T11:30:34.600Z,1070
2018-01-27T11:31:44.780Z,1305
2018-01-27T11:32:55.116Z,1320
2018-01-27T11:34:05.005Z,1065
2018-01-27T11:35:15.153Z,480
2018-01-27T11:36:25.314Z,505
2018-01-27T11:37:35.477Z,1270
2018-01-27T11:38:45.384Z,1340
2018-01-27T11:39:55.624Z,1460
2018-01-27T11:41:05.870Z,1485
2018-01-27T11:42:15.862Z,1470
2018-01-27T11:43:27.109Z,1345
2018-01-27T11:44:37.369Z,1235
2018-01-27T11:45:47.603Z,1225
2018-01-27T11:46:57.761Z,1035
2018-01-27T11:48:07.969Z,1355
2018-01-27T11:49:18.175Z,1150
2018-01-27T11:50:28.414Z,1220
2018-01-27T11:51:38.643Z,1025
2018-01-27T11:52:48.835Z,1170
2018-01-27T11:53:59.122Z,415
2018-01-27T11:55:09.329Z,465
2018-01-27T11:56:19.524Z,360
2018-01-27T11:57:29.786Z,405
2018-01-27T11:58:39.934Z,945
2018-01-27T11:59:50.128Z,665
2018-01-27T12:01:00.344Z,1255
2018-01-27T12:02:10.632Z,980
2018-01-27T12:03:20.848Z,1365
2018-01-27T12:04:31.094Z,1095
2018-01-27T12:05:41.311Z,1155
2018-01-27T12:06:51.469Z,580
2018-01-27T12:08:01.723Z,1055
2018-01-27T12:09:11.913Z,765
2018-01-27T12:10:22.164Z,1320
2018-01-27T12:11:32.344Z,630
2018-01-27T12:12:42.586Z,530
2018-01-27T12:13:52.756Z,460
2018-01-27T12:15:03.039Z,440
2018-01-27T12:16:13.428Z,375
2018-01-27T12:17:23.623Z,375
2018-01-27T12:18:33.820Z,370
2018-01-27T12:19:43.966Z,375
2018-01-27T12:20:54.149Z,375
2018-01-27T12:22:04.323Z,335
2018-01-27T12:23:14.557Z,335
2018-01-27T12:24:24.765Z,350
2018-01-27T12:25:35.084Z,360
2018-01-27T12:26:45.318Z,380
2018-01-27T12:27:55.523Z,380
2018-01-27T12:29:05.349Z,395
2018-01-27T12:30:15.495Z,365
2018-01-27T12:31:25.725Z,295
2018-01-27T12:32:35.907Z,290
2018-01-27T12:33:46.191Z,305
2018-01-27T12:34:56.384Z,340
2018-01-27T12:36:06.561Z,365
2018-01-27T12:37:16.751Z,345
2018-01-27T12:38:26.973Z,345
2018-01-27T12:39:37.156Z,355
2018-01-27T12:40:47.083Z,350
2018-01-27T12:41:57.251Z,340
2018-01-27T12:43:07.461Z,340
2018-01-27T12:44:17.694Z,330
2018-01-27T12:45:27.594Z,385
2018-01-27T12:46:37.777Z,370
2018-01-27T12:47:47.946Z,345
2018-01-27T12:48:58.152Z,325
2018-01-27T12:50:08.340Z,280
2018-01-27T12:51:18.485Z,245
2018-01-27T12:52:28.682Z,230
2018-01-27T12:53:38.948Z,245
2018-01-27T12:54:49.091Z,280
2018-01-27T12:55:59.279Z,310
2018-01-27T12:57:09.485Z,330
2018-01-27T12:58:19.673Z,325
2018-01-27T12:59:29.860Z,320
2018-01-27T13:00:40.064Z,320
2018-01-27T13:01:50.246Z,305
2018-01-27T13:03:00.742Z,285
2018-01-27T13:04:10.921Z,260
2018-01-27T13:05:21.084Z,245
2018-01-27T13:06:31.268Z,230
2018-01-27T13:07:41.496Z,230
2018-01-27T13:08:51.650Z,225
2018-01-27T13:10:01.825Z,220
2018-01-27T13:11:11.991Z,215
2018-01-27T13:12:22.175Z,215
2018-01-27T13:13:32.372Z,215
2018-01-27T13:14:42.304Z,200
2018-01-27T13:15:52.597Z,170
2018-01-27T13:17:02.785Z,165
2018-01-27T13:18:12.746Z,160
2018-01-27T13:19:23.122Z,160
2018-01-27T13:20:33.383Z,150
2018-01-27T13:21:43.729Z,140
2018-01-27T13:22:54.017Z,135
2018-01-27T13:24:04.192Z,135
2018-01-27T13:25:14.591Z,140
2018-01-27T13:26:24.774Z,150
2018-01-27T13:27:34.990Z,160
2018-01-27T13:28:45.161Z,170
2018-01-27T13:29:55.346Z,170
2018-01-27T13:31:05.587Z,160
2018-01-27T13:32:15.764Z,150
2018-01-27T13:33:26.045Z,145
2018-01-27T13:34:36.207Z,135
2018-01-27T13:35:46.434Z,130
2018-01-27T13:36:56.625Z,130
2018-01-27T13:38:06.884Z,125
2018-01-27T13:39:17.055Z,120
2018-01-27T13:40:27.279Z,115
2018-01-27T13:41:37.500Z,115
2018-01-27T13:42:47.861Z,115
2018-01-27T13:43:58.055Z,120
2018-01-27T13:45:08.238Z,135
2018-01-27T13:46:18.114Z,145
2018-01-27T13:47:28.024Z,150
2018-01-27T13:48:38.373Z,150
2018-01-27T13:49:48.619Z,145
2018-01-27T13:50:58.787Z,130
2018-01-27T13:52:08.949Z,125
2018-01-27T13:53:21.080Z,125
2018-01-27T13:54:31.342Z,130
2018-01-27T13:55:41.542Z,130
2018-01-27T13:56:51.900Z,125
2018-01-27T13:58:02.112Z,120
2018-01-27T13:59:12.390Z,110
2018-01-27T14:00:22.559Z,110
2018-01-27T14:01:32.454Z,110
2018-01-27T14:02:42.604Z,110
2018-01-27T14:03:52.754Z,110
2018-01-27T14:05:03.000Z,115
2018-01-27T14:06:13.303Z,115
2018-01-27T14:07:23.438Z,120
2018-01-27T14:08:33.467Z,125
2018-01-27T14:09:43.858Z,130
2018-01-27T14:10:54.166Z,130
2018-01-27T14:12:04.405Z,145
2018-01-27T14:13:14.586Z,155
2018-01-27T14:14:24.773Z,155
2018-01-27T14:15:34.987Z,135
2018-01-27T14:16:45.195Z,120
2018-01-27T14:17:55.375Z,110
2018-01-27T14:19:05.627Z,105
2018-01-27T14:20:15.851Z,95
2018-01-27T14:21:26.001Z,90
2018-01-27T14:22:36.207Z,85
2018-01-27T14:23:46.437Z,75
2018-01-27T14:24:56.417Z,70
2018-01-27T14:26:06.592Z,70
2018-01-27T14:27:16.741Z,65
2018-01-27T14:28:26.907Z,60
2018-01-27T14:29:37.185Z,60
2018-01-27T14:30:47.403Z,60
2018-01-27T14:31:57.595Z,55
2018-01-27T14:33:07.792Z,55
2018-01-27T14:34:17.983Z,50
2018-01-27T14:35:28.166Z,45
2018-01-27T14:36:38.456Z,45
2018-01-27T14:37:48.641Z,50
2018-01-27T14:38:58.866Z,50
2018-01-27T14:40:09.055Z,50
2018-01-27T14:41:19.214Z,50
2018-01-27T14:42:29.442Z,50
2018-01-27T14:43:39.673Z,60
2018-01-27T14:44:49.848Z,60
2018-01-27T14:46:00.081Z,70
2018-01-27T14:47:10.458Z,85
2018-01-27T14:48:20.636Z,90
2018-01-27T14:49:30.863Z,100
2018-01-27T14:50:41.093Z,105
2018-01-27T14:51:51.308Z,105
2018-01-27T14:53:01.546Z,90
2018-01-27T14:54:11.354Z,80
2018-01-27T14:55:21.544Z,75
2018-01-27T14:56:31.836Z,70
2018-01-27T14:57:42.142Z,60
2018-01-27T14:58:52.263Z,60
2018-01-27T15:00:02.433Z,60
2018-01-27T15:01:12.615Z,55
2018-01-27T15:02:22.802Z,55
2018-01-27T15:03:33.018Z,55
2018-01-27T15:04:43.220Z,50
2018-01-27T15:05:53.420Z,50
2018-01-27T15:07:03.668Z,50
2018-01-27T15:08:13.883Z,50
2018-01-27T15:09:24.228Z,45
2018-01-27T15:10:34.450Z,40
2018-01-27T15:11:44.607Z,40
2018-01-27T15:12:54.828Z,35
2018-01-27T15:14:05.159Z,35
2018-01-27T15:15:14.962Z,30
2018-01-27T15:16:25.181Z,30
2018-01-27T15:17:35.360Z,30
2018-01-27T15:18:45.538Z,30
2018-01-27T15:19:55.675Z,30
2018-01-27T15:21:05.850Z,30
2018-01-27T15:22:16.151Z,25
2018-01-27T15:23:26.414Z,25
2018-01-27T15:24:36.584Z,25
2018-01-27T15:25:46.796Z,25
2018-01-27T15:26:56.998Z,25
2018-01-27T15:28:07.165Z,20
2018-01-27T15:29:17.007Z,20
2018-01-27T15:30:27.190Z,20
2018-01-27T15:31:37.363Z,20
2018-01-27T15:32:47.641Z,15
2018-01-27T15:33:57.865Z,15
2018-01-27T15:35:08.222Z,15
2018-01-27T15:36:18.381Z,15
2018-01-27T15:37:28.602Z,15
2018-01-27T15:38:38.971Z,10
2018-01-27T15:39:49.419Z,10
2018-01-27T15:40:59.643Z,10
2018-01-27T15:42:09.828Z,10
2018-01-27T15:43:20.011Z,5
2018-01-27T15:44:30.381Z,5
2018-01-27T15:45:40.308Z,5
2018-01-27T15:46:50.461Z,5
2018-01-27T15:48:00.601Z,5
2018-01-27T15:49:10.827Z,5
2018-01-27T15:50:21.017Z,0
2018-01-27T15:51:31.176Z,0
2018-01-27T15:52:41.370Z,0
2018-01-27T15:53:51.642Z,0
2018-01-27T15:55:01.937Z,0
2018-01-27T15:56:12.151Z,0
2018-01-27T15:57:22.400Z,0
2018-01-27T15:58:32.549Z,0
2018-01-27T15:59:42.750Z,0
2018-01-27T16:00:52.660Z,0
2018-01-27T16:02:02.810Z,0
2018-01-27T16:03:13.016Z,0
2018-01-27T16:04:23.200Z,0
2018-01-27T16:05:33.365Z,0
2018-01-27T16:06:43.566Z,0
2018-01-27T16:07:53.735Z,0
2018-01-27T16:09:03.889Z,0
2018-01-27T16:10:14.094Z,0
2018-01-27T16:11:24.248Z,0
2018-01-27T16:12:34.469Z,0
2018-01-27T16:13:44.660Z,0
2018-01-27T16:14:55.069Z,0
2018-01-27T16:16:05.309Z,0
2018-01-27T16:17:15.525Z,0
2018-01-27T16:18:25.781Z,0
2018-01-27T16:19:36.154Z,0
2018-01-27T16:20:46.372Z,0
2018-01-27T16:21:56.594Z,0
2018-01-27T16:23:06.513Z,0
2018-01-27T16:24:16.652Z,0
2018-01-27T16:25:27.117Z,0
2018-01-27T16:26:37.370Z,0
2018-01-27T16:27:47.616Z,0
2018-01-27T16:28:57.832Z,0
2018-01-27T16:30:08.008Z,0
2018-01-27T16:31:18.231Z,0
2018-01-27T16:32:28.421Z,0
2018-01-27T16:33:38.599Z,0
2018-01-27T16:34:48.895Z,0
2018-01-27T16:35:58.889Z,0
2018-01-27T16:37:09.027Z,0
2018-01-27T16:38:19.181Z,0
2018-01-27T16:39:29.360Z,0
2018-01-27T16:40:39.601Z,0
2018-01-27T16:41:49.696Z,0
2018-01-27T16:43:00.026Z,0